createdAt,value
2022-10-31T00:00:17.292Z,1014.77
2022-10-31T00:01:17.232Z,1014.70
2022-10-31T00:02:17.292Z,1014.69
2022-10-31T00:03:17.227Z,1014.65
2022-10-31T00:04:17.201Z,1014.66
2022-10-31T00:05:17.181Z,1014.71
2022-10-31T00:06:17.173Z,1014.70
2022-10-31T00:07:17.164Z,1014.68
2022-10-31T00:08:17.164Z,1014.70
2022-10-31T00:09:17.155Z,1014.68
2022-10-31T00:10:17.128Z,1014.64
2022-10-31T00:11:17.116Z,1014.65
2022-10-31T00:12:17.106Z,1014.63
2022-10-31T00:13:17.227Z,1014.60
2022-10-31T00:14:17.099Z,1014.68
2022-10-31T00:15:17.110Z,1014.66
2022-10-31T00:16:17.061Z,1014.71
2022-10-31T00:17:17.049Z,1014.69
2022-10-31T00:18:17.038Z,1014.69
2022-10-31T00:19:17.049Z,1014.68
2022-10-31T00:20:17.017Z,1014.73
2022-10-31T00:21:17.026Z,1014.75
2022-10-31T00:22:16.994Z,1014.76
2022-10-31T00:23:16.980Z,1014.70
2022-10-31T00:24:16.997Z,1014.73
2022-10-31T00:25:16.959Z,1014.75
2022-10-31T00:26:16.952Z,1014.77
2022-10-31T00:27:17.011Z,1014.79
2022-10-31T00:28:16.923Z,1014.77
2022-10-31T00:29:16.941Z,1014.84
2022-10-31T00:30:16.909Z,1014.86
2022-10-31T00:31:16.916Z,1014.81
2022-10-31T00:32:16.882Z,1014.85
2022-10-31T00:33:16.871Z,1014.80
2022-10-31T00:34:16.865Z,1014.89
2022-10-31T00:35:16.877Z,1014.86
2022-10-31T00:36:16.851Z,1014.84
2022-10-31T00:37:16.850Z,1014.87
2022-10-31T00:38:16.822Z,1014.86
2022-10-31T00:39:16.802Z,1014.83
2022-10-31T00:40:16.794Z,1014.89
2022-10-31T00:41:16.782Z,1014.86
2022-10-31T00:42:16.799Z,1014.87
2022-10-31T00:43:16.776Z,1014.85
2022-10-31T00:44:16.779Z,1014.84
2022-10-31T00:45:16.778Z,1014.84
2022-10-31T00:46:16.758Z,1014.86
2022-10-31T00:47:16.776Z,1014.85
2022-10-31T00:48:16.744Z,1014.88
2022-10-31T00:49:16.718Z,1014.85
2022-10-31T00:50:16.696Z,1014.87
2022-10-31T00:51:16.697Z,1014.88
2022-10-31T00:52:16.664Z,1014.95
2022-10-31T00:53:16.664Z,1014.90
2022-10-31T00:54:16.641Z,1014.96
2022-10-31T00:55:16.633Z,1014.86
2022-10-31T00:56:16.648Z,1014.90
2022-10-31T00:57:16.607Z,1014.92
2022-10-31T00:58:16.598Z,1014.96
2022-10-31T00:59:16.584Z,1014.97
2022-10-31T01:00:16.582Z,1015.02
2022-10-31T01:01:16.689Z,1014.96
2022-10-31T01:02:16.666Z,1014.96
2022-10-31T01:03:16.566Z,1015.00
2022-10-31T01:04:16.536Z,1014.99
2022-10-31T01:05:16.518Z,1014.98
2022-10-31T01:06:16.537Z,1015.02
2022-10-31T01:07:16.498Z,1015.01
2022-10-31T01:08:16.483Z,1015.08
2022-10-31T01:09:16.472Z,1015.07
2022-10-31T01:10:16.466Z,1015.01
2022-10-31T01:11:16.454Z,1015.08
2022-10-31T01:12:16.479Z,1015.07
2022-10-31T01:13:16.499Z,1015.05
2022-10-31T01:14:16.421Z,1015.05
2022-10-31T01:15:16.413Z,1015.07
2022-10-31T01:16:16.407Z,1015.06
2022-10-31T01:17:16.409Z,1015.10
2022-10-31T01:18:16.375Z,1015.02
2022-10-31T01:19:16.386Z,1015.06
2022-10-31T01:20:16.356Z,1015.08
2022-10-31T01:21:16.348Z,1015.13
2022-10-31T01:22:16.357Z,1015.15
2022-10-31T01:23:16.323Z,1015.11
2022-10-31T01:24:16.308Z,1015.11
2022-10-31T01:25:16.300Z,1015.10
2022-10-31T01:26:16.290Z,1015.08
2022-10-31T01:27:16.297Z,1015.09
2022-10-31T01:28:16.313Z,1015.06
2022-10-31T01:29:16.259Z,1015.17
2022-10-31T01:30:16.270Z,1015.11
2022-10-31T01:31:16.257Z,1015.15
2022-10-31T01:32:16.224Z,1015.11
2022-10-31T01:33:16.210Z,1015.10
2022-10-31T01:34:16.216Z,1015.09
2022-10-31T01:35:16.232Z,1015.12
2022-10-31T01:36:16.182Z,1015.17
2022-10-31T01:37:16.164Z,1015.05
2022-10-31T01:38:16.154Z,1015.08
2022-10-31T01:39:16.147Z,1015.10
2022-10-31T01:40:16.160Z,1015.13
2022-10-31T01:41:16.121Z,1015.19
2022-10-31T01:42:16.114Z,1015.14
2022-10-31T01:43:16.185Z,1015.20
2022-10-31T01:44:16.175Z,1015.16
2022-10-31T01:45:16.077Z,1015.16
2022-10-31T01:46:16.091Z,1015.21
2022-10-31T01:47:16.055Z,1015.23
2022-10-31T01:48:16.068Z,1015.19
2022-10-31T01:49:16.040Z,1015.17
2022-10-31T01:50:16.027Z,1015.13
2022-10-31T01:51:16.038Z,1015.12
2022-10-31T01:52:16.019Z,1015.11
2022-10-31T01:53:15.993Z,1015.06
2022-10-31T01:54:15.981Z,1015.07
2022-10-31T01:55:15.973Z,1015.06
2022-10-31T01:56:15.957Z,1015.09
2022-10-31T01:57:15.984Z,1015.12
2022-10-31T01:58:16.022Z,1015.13
2022-10-31T01:59:15.926Z,1015.15
2022-10-31T02:00:15.920Z,1015.18
2022-10-31T02:01:16.115Z,1015.23
2022-10-31T02:02:16.060Z,1015.14
2022-10-31T02:03:15.901Z,1015.14
2022-10-31T02:04:15.870Z,1015.16
2022-10-31T02:05:15.855Z,1015.21
2022-10-31T02:06:15.845Z,1015.24
2022-10-31T02:07:15.851Z,1015.21
2022-10-31T02:08:15.846Z,1015.17
2022-10-31T02:09:15.819Z,1015.19
2022-10-31T02:10:15.804Z,1015.21
2022-10-31T02:11:15.792Z,1015.21
2022-10-31T02:12:15.779Z,1015.25
2022-10-31T02:13:15.843Z,1015.24
2022-10-31T02:14:15.782Z,1015.20
2022-10-31T02:15:15.748Z,1015.20
2022-10-31T02:16:15.737Z,1015.16
2022-10-31T02:17:15.727Z,1015.26
2022-10-31T02:18:15.742Z,1015.20
2022-10-31T02:19:15.702Z,1015.23
2022-10-31T02:20:15.701Z,1015.16
2022-10-31T02:21:15.681Z,1015.16
2022-10-31T02:22:15.672Z,1015.18
2022-10-31T02:23:15.722Z,1015.21
2022-10-31T02:24:15.648Z,1015.23
2022-10-31T02:25:15.636Z,1015.17
2022-10-31T02:26:15.636Z,1015.16
2022-10-31T02:27:15.615Z,1015.14
2022-10-31T02:28:15.671Z,1015.15
2022-10-31T02:29:15.621Z,1015.18
2022-10-31T02:30:15.577Z,1015.18
2022-10-31T02:31:15.571Z,1015.16
2022-10-31T02:32:15.562Z,1015.12
2022-10-31T02:33:15.549Z,1015.10
2022-10-31T02:34:15.558Z,1015.16
2022-10-31T02:35:15.530Z,1015.08
2022-10-31T02:36:15.522Z,1015.15
2022-10-31T02:37:15.503Z,1015.12
2022-10-31T02:38:15.490Z,1015.17
2022-10-31T02:39:15.501Z,1015.14
2022-10-31T02:40:15.489Z,1015.16
2022-10-31T02:41:15.458Z,1015.16
2022-10-31T02:42:15.451Z,1015.17
2022-10-31T02:43:15.490Z,1015.21
2022-10-31T02:44:15.424Z,1015.17
2022-10-31T02:45:15.473Z,1015.14
2022-10-31T02:46:15.406Z,1015.19
2022-10-31T02:47:15.396Z,1015.11
2022-10-31T02:48:15.381Z,1015.15
2022-10-31T02:49:15.368Z,1015.14
2022-10-31T02:50:15.373Z,1015.17
2022-10-31T02:51:15.347Z,1015.19
2022-10-31T02:52:15.359Z,1015.19
2022-10-31T02:53:15.329Z,1015.22
2022-10-31T02:54:15.316Z,1015.14
2022-10-31T02:55:15.348Z,1015.16
2022-10-31T02:56:15.295Z,1015.19
2022-10-31T02:57:15.285Z,1015.22
2022-10-31T02:58:15.344Z,1015.30
2022-10-31T02:59:15.271Z,1015.26
2022-10-31T03:00:15.252Z,1015.29
2022-10-31T03:01:15.394Z,1015.29
2022-10-31T03:02:15.461Z,1015.31
2022-10-31T03:03:15.221Z,1015.27
2022-10-31T03:04:15.208Z,1015.27
2022-10-31T03:05:15.195Z,1015.34
2022-10-31T03:06:15.192Z,1015.31
2022-10-31T03:07:15.195Z,1015.31
2022-10-31T03:08:15.164Z,1015.32
2022-10-31T03:09:15.159Z,1015.27
2022-10-31T03:10:15.141Z,1015.32
2022-10-31T03:11:15.151Z,1015.30
2022-10-31T03:12:15.138Z,1015.35
2022-10-31T03:13:15.181Z,1015.35
2022-10-31T03:14:15.094Z,1015.34
2022-10-31T03:15:15.089Z,1015.33
2022-10-31T03:16:15.072Z,1015.39
2022-10-31T03:17:15.067Z,1015.36
2022-10-31T03:18:15.071Z,1015.36
2022-10-31T03:19:15.046Z,1015.39
2022-10-31T03:20:15.025Z,1015.41
2022-10-31T03:21:15.027Z,1015.39
2022-10-31T03:22:15.013Z,1015.43
2022-10-31T03:23:15.020Z,1015.38
2022-10-31T03:24:14.999Z,1015.44
2022-10-31T03:25:14.977Z,1015.40
2022-10-31T03:26:14.965Z,1015.42
2022-10-31T03:27:14.976Z,1015.45
2022-10-31T03:28:14.993Z,1015.51
2022-10-31T03:29:14.932Z,1015.51
2022-10-31T03:30:14.917Z,1015.47
2022-10-31T03:31:14.906Z,1015.54
2022-10-31T03:32:14.894Z,1015.55
2022-10-31T03:33:14.919Z,1015.49
2022-10-31T03:34:14.876Z,1015.53
2022-10-31T03:35:14.863Z,1015.49
2022-10-31T03:36:14.858Z,1015.51
2022-10-31T03:37:14.842Z,1015.55
2022-10-31T03:38:14.832Z,1015.56
2022-10-31T03:39:14.845Z,1015.60
2022-10-31T03:40:14.810Z,1015.61
2022-10-31T03:41:14.808Z,1015.62
2022-10-31T03:42:14.784Z,1015.66
2022-10-31T03:43:14.850Z,1015.60
2022-10-31T03:44:14.791Z,1015.66
2022-10-31T03:45:14.767Z,1015.61
2022-10-31T03:46:14.745Z,1015.64
2022-10-31T03:47:14.730Z,1015.66
2022-10-31T03:48:14.721Z,1015.68
2022-10-31T03:49:14.729Z,1015.67
2022-10-31T03:50:14.699Z,1015.64
2022-10-31T03:51:14.711Z,1015.68
2022-10-31T03:52:14.703Z,1015.71
2022-10-31T03:53:14.670Z,1015.69
2022-10-31T03:54:14.654Z,1015.70
2022-10-31T03:55:14.646Z,1015.70
2022-10-31T03:56:14.640Z,1015.74
2022-10-31T03:57:14.645Z,1015.73
2022-10-31T03:58:14.677Z,1015.73
2022-10-31T03:59:14.621Z,1015.70
2022-10-31T04:00:14.592Z,1015.74
2022-10-31T04:01:14.663Z,1015.74
2022-10-31T04:02:14.766Z,1015.73
2022-10-31T04:03:14.554Z,1015.74
2022-10-31T04:04:14.548Z,1015.80
2022-10-31T04:05:14.536Z,1015.71
2022-10-31T04:06:14.526Z,1015.84
2022-10-31T04:07:14.533Z,1015.80
2022-10-31T04:08:14.508Z,1015.75
2022-10-31T04:09:14.495Z,1015.83
2022-10-31T04:10:14.479Z,1015.79
2022-10-31T04:11:14.467Z,1015.85
2022-10-31T04:12:14.478Z,1015.85
2022-10-31T04:13:14.484Z,1015.84
2022-10-31T04:14:14.462Z,1015.85
2022-10-31T04:15:14.448Z,1015.81
2022-10-31T04:16:17.045Z,1015.84
2022-10-31T04:17:14.437Z,1015.88
2022-10-31T04:18:14.394Z,1015.89
2022-10-31T04:19:14.379Z,1015.85
2022-10-31T04:20:14.376Z,1015.83
2022-10-31T04:21:14.363Z,1015.82
2022-10-31T04:22:14.368Z,1015.80
2022-10-31T04:23:14.784Z,1015.83
2022-10-31T04:24:14.326Z,1015.85
2022-10-31T04:25:14.316Z,1015.86
2022-10-31T04:26:14.303Z,1015.88
2022-10-31T04:27:14.297Z,1015.91
2022-10-31T04:28:14.338Z,1015.96
2022-10-31T04:29:14.270Z,1015.95
2022-10-31T04:30:14.259Z,1015.91
2022-10-31T04:31:14.268Z,1015.85
2022-10-31T04:32:14.238Z,1015.86
2022-10-31T04:33:14.250Z,1015.87
2022-10-31T04:34:14.216Z,1015.85
2022-10-31T04:35:14.207Z,1015.87
2022-10-31T04:36:14.193Z,1015.87
2022-10-31T04:37:14.182Z,1015.95
2022-10-31T04:38:14.198Z,1015.90
2022-10-31T04:39:14.175Z,1015.90
2022-10-31T04:40:14.153Z,1015.96
2022-10-31T04:41:14.146Z,1015.92
2022-10-31T04:42:14.126Z,1015.89
2022-10-31T04:43:14.190Z,1015.94
2022-10-31T04:44:14.101Z,1015.89
2022-10-31T04:45:16.874Z,1015.95
2022-10-31T04:46:15.087Z,1015.92
2022-10-31T04:47:14.093Z,1015.98
2022-10-31T04:48:14.084Z,1015.97
2022-10-31T04:49:14.056Z,1015.95
2022-10-31T04:50:14.043Z,1015.96
2022-10-31T04:51:14.035Z,1016.00
2022-10-31T04:52:14.016Z,1015.95
2022-10-31T04:53:14.025Z,1016.04
2022-10-31T04:54:14.017Z,1016.04
2022-10-31T04:55:13.985Z,1016.03
2022-10-31T04:56:13.975Z,1015.94
2022-10-31T04:57:13.962Z,1015.94
2022-10-31T04:58:14.069Z,1016.00
2022-10-31T04:59:13.961Z,1015.98
2022-10-31T05:00:13.934Z,1016.01
2022-10-31T05:01:14.077Z,1016.01
2022-10-31T05:02:14.102Z,1016.01
2022-10-31T05:03:13.921Z,1015.96
2022-10-31T05:04:13.888Z,1016.02
2022-10-31T05:05:13.894Z,1016.00
2022-10-31T05:06:13.887Z,1015.98
2022-10-31T05:07:13.853Z,1015.97
2022-10-31T05:08:13.841Z,1016.04
2022-10-31T05:09:13.832Z,1016.01
2022-10-31T05:10:13.816Z,1016.08
2022-10-31T05:11:13.832Z,1016.00
2022-10-31T05:12:13.796Z,1016.02
2022-10-31T05:13:13.871Z,1016.08
2022-10-31T05:14:13.776Z,1015.96
2022-10-31T05:15:13.768Z,1015.98
2022-10-31T05:16:13.774Z,1015.97
2022-10-31T05:17:13.742Z,1016.03
2022-10-31T05:18:13.735Z,1016.10
2022-10-31T05:19:13.742Z,1016.04
2022-10-31T05:20:13.706Z,1016.07
2022-10-31T05:21:13.722Z,1016.06
2022-10-31T05:22:13.710Z,1016.05
2022-10-31T05:23:13.678Z,1016.09
2022-10-31T05:24:13.665Z,1016.13
2022-10-31T05:25:13.663Z,1016.07
2022-10-31T05:26:13.645Z,1016.12
2022-10-31T05:27:13.637Z,1016.10
2022-10-31T05:28:13.650Z,1016.12
2022-10-31T05:29:13.609Z,1016.14
2022-10-31T05:30:13.598Z,1016.09
2022-10-31T05:31:13.593Z,1016.13
2022-10-31T05:32:13.580Z,1016.10
2022-10-31T05:33:13.591Z,1016.15
2022-10-31T05:34:13.554Z,1016.16
2022-10-31T05:35:13.565Z,1016.18
2022-10-31T05:36:13.548Z,1016.20
2022-10-31T05:37:13.521Z,1016.19
2022-10-31T05:38:13.535Z,1016.18
2022-10-31T05:39:13.501Z,1016.19
2022-10-31T05:40:13.493Z,1016.12
2022-10-31T05:41:13.496Z,1016.13
2022-10-31T05:42:13.464Z,1016.13
2022-10-31T05:43:13.475Z,1016.17
2022-10-31T05:44:13.445Z,1016.18
2022-10-31T05:45:13.441Z,1016.18
2022-10-31T05:46:13.440Z,1016.16
2022-10-31T05:47:13.414Z,1016.27
2022-10-31T05:48:13.419Z,1016.27
2022-10-31T05:49:13.391Z,1016.22
2022-10-31T05:50:13.379Z,1016.24
2022-10-31T05:51:13.408Z,1016.23
2022-10-31T05:52:13.360Z,1016.22
2022-10-31T05:53:13.379Z,1016.16
2022-10-31T05:54:15.860Z,1016.18
2022-10-31T05:55:13.331Z,1016.18
2022-10-31T05:56:13.317Z,1016.26
2022-10-31T05:57:13.318Z,1016.27
2022-10-31T05:58:13.291Z,1016.22
2022-10-31T05:59:13.304Z,1016.21
2022-10-31T06:00:13.271Z,1016.22
2022-10-31T06:01:13.369Z,1016.21
2022-10-31T06:02:13.247Z,1016.21
2022-10-31T06:03:13.242Z,1016.25
2022-10-31T06:04:13.293Z,1016.21
2022-10-31T06:05:13.297Z,1016.27
2022-10-31T06:06:13.220Z,1016.28
2022-10-31T06:07:13.216Z,1016.31
2022-10-31T06:08:13.184Z,1016.30
2022-10-31T06:09:13.169Z,1016.34
2022-10-31T06:10:13.186Z,1016.30
2022-10-31T06:11:13.175Z,1016.29
2022-10-31T06:12:13.140Z,1016.36
2022-10-31T06:13:13.131Z,1016.33
2022-10-31T06:14:13.115Z,1016.35
2022-10-31T06:15:13.132Z,1016.35
2022-10-31T06:16:13.120Z,1016.36
2022-10-31T06:17:13.086Z,1016.31
2022-10-31T06:18:13.072Z,1016.36
2022-10-31T06:19:13.061Z,1016.38
2022-10-31T06:20:13.051Z,1016.46
2022-10-31T06:21:16.297Z,1016.41
2022-10-31T06:22:14.027Z,1016.42
2022-10-31T06:23:13.037Z,1016.39
2022-10-31T06:24:13.007Z,1016.38
2022-10-31T06:25:13.000Z,1016.45
2022-10-31T06:26:13.009Z,1016.50
2022-10-31T06:27:12.976Z,1016.46
2022-10-31T06:28:12.962Z,1016.45
2022-10-31T06:29:12.955Z,1016.50
2022-10-31T06:30:12.940Z,1016.50
2022-10-31T06:31:12.930Z,1016.51
2022-10-31T06:32:12.941Z,1016.53
2022-10-31T06:33:12.911Z,1016.53
2022-10-31T06:34:12.901Z,1016.48
2022-10-31T06:35:12.887Z,1016.52
2022-10-31T06:36:12.987Z,1016.60
2022-10-31T06:37:12.865Z,1016.57
2022-10-31T06:38:12.852Z,1016.59
2022-10-31T06:39:12.864Z,1016.60
2022-10-31T06:40:12.831Z,1016.63
2022-10-31T06:41:12.839Z,1016.57
2022-10-31T06:42:12.809Z,1016.64
2022-10-31T06:43:12.797Z,1016.59
2022-10-31T06:44:12.801Z,1016.61
2022-10-31T06:45:12.804Z,1016.56
2022-10-31T06:46:12.783Z,1016.64
2022-10-31T06:47:12.780Z,1016.61
2022-10-31T06:48:17.157Z,1016.65
2022-10-31T06:49:13.731Z,1016.62
2022-10-31T06:50:12.720Z,1016.62
2022-10-31T06:51:12.732Z,1016.58
2022-10-31T06:52:12.705Z,1016.62
2022-10-31T06:53:12.890Z,1016.67
2022-10-31T06:54:12.680Z,1016.68
2022-10-31T06:55:12.783Z,1016.66
2022-10-31T06:56:12.662Z,1016.71
2022-10-31T06:57:12.645Z,1016.65
2022-10-31T06:58:12.683Z,1016.63
2022-10-31T06:59:12.627Z,1016.68
2022-10-31T07:00:12.636Z,1016.74
2022-10-31T07:01:12.775Z,1016.85
2022-10-31T07:02:12.726Z,1016.86
2022-10-31T07:03:12.593Z,1016.83
2022-10-31T07:04:12.580Z,1016.89
2022-10-31T07:05:12.584Z,1016.81
2022-10-31T07:06:12.549Z,1016.80
2022-10-31T07:07:12.541Z,1016.84
2022-10-31T07:08:12.552Z,1016.84
2022-10-31T07:09:12.518Z,1016.86
2022-10-31T07:11:12.534Z,1016.87
2022-10-31T07:12:12.482Z,1016.88
2022-10-31T07:13:12.473Z,1016.89
2022-10-31T07:14:12.468Z,1016.80
2022-10-31T07:15:12.477Z,1016.89
2022-10-31T07:16:12.437Z,1016.85
2022-10-31T07:17:12.431Z,1016.81
2022-10-31T07:18:12.418Z,1016.85
2022-10-31T07:19:12.409Z,1016.81
2022-10-31T07:20:12.418Z,1016.87
2022-10-31T07:21:12.388Z,1016.90
2022-10-31T07:22:12.391Z,1016.90
2022-10-31T07:23:12.366Z,1016.89
2022-10-31T07:24:12.352Z,1016.91
2022-10-31T07:25:12.347Z,1016.88
2022-10-31T07:26:12.334Z,1016.98
2022-10-31T07:27:12.366Z,1016.90
2022-10-31T07:28:12.316Z,1016.90
2022-10-31T07:29:12.301Z,1016.95
2022-10-31T07:30:12.285Z,1016.96
2022-10-31T07:31:12.275Z,1016.91
2022-10-31T07:32:12.261Z,1016.97
2022-10-31T07:33:12.282Z,1016.95
2022-10-31T07:34:12.239Z,1016.97
2022-10-31T07:35:12.254Z,1016.95
2022-10-31T07:36:12.218Z,1016.92
2022-10-31T07:37:12.234Z,1016.96
2022-10-31T07:38:12.204Z,1016.98
2022-10-31T07:39:12.186Z,1016.98
2022-10-31T07:40:12.183Z,1016.97
2022-10-31T07:41:12.164Z,1016.98
2022-10-31T07:42:12.177Z,1017.01
2022-10-31T07:43:14.298Z,1017.03
2022-10-31T07:44:12.136Z,1017.08
2022-10-31T07:45:12.118Z,1017.10
2022-10-31T07:46:12.132Z,1017.08
2022-10-31T07:47:12.094Z,1017.14
2022-10-31T07:48:12.097Z,1017.12
2022-10-31T07:49:12.077Z,1017.14
2022-10-31T07:50:12.062Z,1017.11
2022-10-31T07:51:12.079Z,1017.14
2022-10-31T07:52:12.044Z,1017.12
2022-10-31T07:53:12.034Z,1017.16
2022-10-31T07:54:12.023Z,1017.23
2022-10-31T07:55:12.008Z,1017.17
2022-10-31T07:56:12.030Z,1017.14
2022-10-31T07:57:11.990Z,1017.25
2022-10-31T07:58:11.975Z,1017.26
2022-10-31T07:59:11.989Z,1017.25
2022-10-31T08:00:11.955Z,1017.24
2022-10-31T08:02:11.947Z,1017.27
2022-10-31T08:03:11.924Z,1017.30
2022-10-31T08:04:11.909Z,1017.30
2022-10-31T08:05:11.901Z,1017.30
2022-10-31T08:06:11.912Z,1017.34
2022-10-31T08:07:11.878Z,1017.33
2022-10-31T08:08:11.866Z,1017.32
2022-10-31T08:09:11.851Z,1017.26
2022-10-31T08:10:11.847Z,1017.32
2022-10-31T08:11:11.859Z,1017.29
2022-10-31T08:12:11.822Z,1017.27
2022-10-31T08:13:11.810Z,1017.30
2022-10-31T08:14:11.795Z,1017.35
2022-10-31T08:15:11.832Z,1017.34
2022-10-31T08:16:11.802Z,1017.35
2022-10-31T08:17:11.797Z,1017.36
2022-10-31T08:18:11.760Z,1017.37
2022-10-31T08:19:11.741Z,1017.30
2022-10-31T08:20:11.757Z,1017.34
2022-10-31T08:21:11.723Z,1017.30
2022-10-31T08:22:11.713Z,1017.31
2022-10-31T08:23:11.713Z,1017.32
2022-10-31T08:24:11.715Z,1017.34
2022-10-31T08:25:11.681Z,1017.35
2022-10-31T08:26:11.693Z,1017.31
2022-10-31T08:27:11.693Z,1017.40
2022-10-31T08:28:11.646Z,1017.41
2022-10-31T08:29:11.634Z,1017.45
2022-10-31T08:30:11.632Z,1017.39
2022-10-31T08:31:11.698Z,1017.41
2022-10-31T08:32:11.601Z,1017.50
2022-10-31T08:33:11.589Z,1017.41
2022-10-31T08:34:11.581Z,1017.41
2022-10-31T08:35:11.568Z,1017.46
2022-10-31T08:36:11.582Z,1017.47
2022-10-31T08:37:11.546Z,1017.52
2022-10-31T08:38:11.540Z,1017.53
2022-10-31T08:39:11.520Z,1017.51
2022-10-31T08:40:11.515Z,1017.50
2022-10-31T08:41:11.522Z,1017.49
2022-10-31T08:42:11.492Z,1017.44
2022-10-31T08:43:11.478Z,1017.52
2022-10-31T08:44:11.471Z,1017.47
2022-10-31T08:45:11.460Z,1017.48
2022-10-31T08:46:11.461Z,1017.51
2022-10-31T08:47:11.457Z,1017.47
2022-10-31T08:48:11.432Z,1017.48
2022-10-31T08:49:11.432Z,1017.42
2022-10-31T08:50:11.407Z,1017.35
2022-10-31T08:51:11.410Z,1017.45
2022-10-31T08:52:14.433Z,1017.35
2022-10-31T08:53:11.374Z,1017.38
2022-10-31T08:54:11.376Z,1017.34
2022-10-31T08:55:11.348Z,1017.36
2022-10-31T08:56:11.359Z,1017.37
2022-10-31T08:57:11.329Z,1017.33
2022-10-31T08:58:11.317Z,1017.34
2022-10-31T08:59:11.322Z,1017.32
2022-10-31T09:00:11.321Z,1017.39
2022-10-31T09:01:11.445Z,1017.39
2022-10-31T09:02:11.318Z,1017.37
2022-10-31T09:03:11.278Z,1017.40
2022-10-31T09:04:11.250Z,1017.32
2022-10-31T09:05:11.261Z,1017.36
2022-10-31T09:06:11.281Z,1017.43
2022-10-31T09:07:26.599Z,1017.40
2022-10-31T09:08:16.315Z,1017.49
2022-10-31T09:09:11.191Z,1017.43
2022-10-31T09:10:11.211Z,1017.42
2022-10-31T09:11:11.174Z,1017.39
2022-10-31T09:12:11.165Z,1017.37
2022-10-31T09:13:11.147Z,1017.42
2022-10-31T09:14:11.139Z,1017.44
2022-10-31T09:15:11.156Z,1017.42
2022-10-31T09:16:11.130Z,1017.51
2022-10-31T09:17:11.105Z,1017.45
2022-10-31T09:18:11.101Z,1017.46
2022-10-31T09:19:11.647Z,1017.45
2022-10-31T09:20:11.100Z,1017.44
2022-10-31T09:21:11.064Z,1017.44
2022-10-31T09:22:11.045Z,1017.41
2022-10-31T09:23:11.043Z,1017.44
2022-10-31T09:24:11.031Z,1017.44
2022-10-31T09:25:11.020Z,1017.47
2022-10-31T09:26:11.031Z,1017.50
2022-10-31T09:27:10.994Z,1017.58
2022-10-31T09:28:10.989Z,1017.52
2022-10-31T09:29:10.969Z,1017.56
2022-10-31T09:30:10.966Z,1017.63
2022-10-31T09:31:10.976Z,1017.61
2022-10-31T09:32:10.944Z,1017.61
2022-10-31T09:33:10.927Z,1017.61
2022-10-31T09:34:10.922Z,1017.65
2022-10-31T09:36:10.922Z,1017.62
2022-10-31T09:37:10.882Z,1017.65
2022-10-31T09:38:10.877Z,1017.63
2022-10-31T09:39:10.878Z,1017.65
2022-10-31T09:40:10.859Z,1017.61
2022-10-31T09:41:10.859Z,1017.67
2022-10-31T09:42:10.829Z,1017.66
2022-10-31T09:43:10.826Z,1017.63
2022-10-31T09:44:10.809Z,1017.69
2022-10-31T09:45:10.833Z,1017.63
2022-10-31T09:46:10.784Z,1017.67
2022-10-31T09:47:10.780Z,1017.71
2022-10-31T09:48:10.761Z,1017.68
2022-10-31T09:49:10.794Z,1017.67
2022-10-31T09:50:10.745Z,1017.75
2022-10-31T09:51:10.768Z,1017.76
2022-10-31T09:53:10.714Z,1017.80
2022-10-31T09:54:10.696Z,1017.77
2022-10-31T09:55:10.688Z,1017.80
2022-10-31T09:56:10.693Z,1017.79
2022-10-31T09:57:10.661Z,1017.77
2022-10-31T09:58:10.687Z,1017.78
2022-10-31T09:59:10.638Z,1017.81
2022-10-31T10:00:10.636Z,1017.76
2022-10-31T10:01:10.847Z,1017.85
2022-10-31T10:02:10.700Z,1017.78
2022-10-31T10:03:10.628Z,1017.78
2022-10-31T10:04:10.581Z,1017.78
2022-10-31T10:05:10.581Z,1017.80
2022-10-31T10:06:10.565Z,1017.75
2022-10-31T10:07:10.570Z,1017.72
2022-10-31T10:08:10.564Z,1017.72
2022-10-31T10:09:10.551Z,1017.69
2022-10-31T10:10:10.525Z,1017.76
2022-10-31T10:11:10.510Z,1017.67
2022-10-31T10:12:10.507Z,1017.68
2022-10-31T10:13:10.794Z,1017.68
2022-10-31T10:14:10.474Z,1017.67
2022-10-31T10:15:10.466Z,1017.64
2022-10-31T10:16:10.457Z,1017.57
2022-10-31T10:17:10.465Z,1017.61
2022-10-31T10:18:10.445Z,1017.64
2022-10-31T10:19:10.435Z,1017.67
2022-10-31T10:20:11.492Z,1017.61
2022-10-31T10:21:10.399Z,1017.54
2022-10-31T10:22:10.400Z,1017.57
2022-10-31T10:23:10.410Z,1017.54
2022-10-31T10:24:10.366Z,1017.54
2022-10-31T10:25:10.353Z,1017.56
2022-10-31T10:26:11.439Z,1017.54
2022-10-31T10:27:10.334Z,1017.62
2022-10-31T10:28:10.339Z,1017.59
2022-10-31T10:29:10.312Z,1017.61
2022-10-31T10:30:10.299Z,1017.58
2022-10-31T10:31:10.287Z,1017.58
2022-10-31T10:32:10.300Z,1017.56
2022-10-31T10:33:10.288Z,1017.59
2022-10-31T10:34:10.256Z,1017.56
2022-10-31T10:35:10.248Z,1017.53
2022-10-31T10:36:10.236Z,1017.49
2022-10-31T10:37:10.234Z,1017.54
2022-10-31T10:38:10.252Z,1017.52
2022-10-31T10:39:10.227Z,1017.56
2022-10-31T10:40:10.192Z,1017.49
2022-10-31T10:41:10.182Z,1017.50
2022-10-31T10:42:10.171Z,1017.47
2022-10-31T10:43:10.178Z,1017.51
2022-10-31T10:44:10.154Z,1017.44
2022-10-31T10:45:10.134Z,1017.44
2022-10-31T10:46:11.888Z,1017.40
2022-10-31T10:47:10.119Z,1017.37
2022-10-31T10:48:10.148Z,1017.40
2022-10-31T10:49:10.091Z,1017.33
2022-10-31T10:50:10.079Z,1017.38
2022-10-31T10:51:25.461Z,1017.38
2022-10-31T10:52:26.940Z,1017.35
2022-10-31T10:53:11.073Z,1017.45
2022-10-31T10:54:10.743Z,1017.34
2022-10-31T10:55:10.052Z,1017.38
2022-10-31T10:56:10.036Z,1017.42
2022-10-31T10:57:10.002Z,1017.40
2022-10-31T10:58:09.993Z,1017.37
2022-10-31T10:59:09.979Z,1017.39
2022-10-31T11:00:09.972Z,1017.36
2022-10-31T11:01:10.221Z,1017.37
2022-10-31T11:02:09.951Z,1017.38
2022-10-31T11:03:09.958Z,1017.36
2022-10-31T11:04:09.930Z,1017.39
2022-10-31T11:05:09.919Z,1017.33
2022-10-31T11:06:09.900Z,1017.39
2022-10-31T11:07:09.893Z,1017.44
2022-10-31T11:08:09.909Z,1017.47
2022-10-31T11:09:09.873Z,1017.40
2022-10-31T11:10:09.861Z,1017.41
2022-10-31T11:11:09.877Z,1017.40
2022-10-31T11:12:09.864Z,1017.40
2022-10-31T11:13:09.826Z,1017.39
2022-10-31T11:14:09.810Z,1017.38
2022-10-31T11:15:09.805Z,1017.35
2022-10-31T11:16:09.795Z,1017.36
2022-10-31T11:17:09.813Z,1017.27
2022-10-31T11:18:09.767Z,1017.26
2022-10-31T11:19:09.765Z,1017.25
2022-10-31T11:20:12.414Z,1017.28
2022-10-31T11:21:10.742Z,1017.24
2022-10-31T11:22:09.746Z,1017.27
2022-10-31T11:23:10.194Z,1017.29
2022-10-31T11:24:09.705Z,1017.27
2022-10-31T11:25:09.717Z,1017.24
2022-10-31T11:26:09.689Z,1017.23
2022-10-31T11:27:09.707Z,1017.25
2022-10-31T11:28:09.685Z,1017.25
2022-10-31T11:29:09.648Z,1017.17
2022-10-31T11:30:09.639Z,1017.17
2022-10-31T11:31:09.624Z,1017.21
2022-10-31T11:32:09.618Z,1017.21
2022-10-31T11:33:09.632Z,1017.21
2022-10-31T11:34:09.594Z,1017.22
2022-10-31T11:35:09.585Z,1017.23
2022-10-31T11:36:09.570Z,1017.18
2022-10-31T11:37:09.561Z,1017.19
2022-10-31T11:38:09.584Z,1017.11
2022-10-31T11:39:09.540Z,1017.17
2022-10-31T11:40:09.529Z,1017.13
2022-10-31T11:41:09.516Z,1017.15
2022-10-31T11:42:09.507Z,1017.18
2022-10-31T11:43:09.509Z,1017.19
2022-10-31T11:44:09.497Z,1017.16
2022-10-31T11:45:09.499Z,1017.22
2022-10-31T11:46:09.475Z,1017.19
2022-10-31T11:47:09.454Z,1017.26
2022-10-31T11:48:09.440Z,1017.26
2022-10-31T11:49:09.430Z,1017.20
2022-10-31T11:50:09.437Z,1017.26
2022-10-31T11:51:09.412Z,1017.27
2022-10-31T11:52:09.398Z,1017.21
2022-10-31T11:53:09.392Z,1017.24
2022-10-31T11:54:09.395Z,1017.23
2022-10-31T11:55:09.365Z,1017.21
2022-10-31T11:56:09.376Z,1017.14
2022-10-31T11:57:09.346Z,1017.17
2022-10-31T11:58:09.330Z,1017.16
2022-10-31T11:59:09.344Z,1017.19
2022-10-31T12:00:09.328Z,1017.19
2022-10-31T12:01:09.376Z,1017.20
2022-10-31T12:02:09.414Z,1017.20
2022-10-31T12:03:09.276Z,1017.17
2022-10-31T12:04:09.263Z,1017.24
2022-10-31T12:05:09.251Z,1017.26
2022-10-31T12:06:09.262Z,1017.22
2022-10-31T12:07:09.236Z,1017.19
2022-10-31T12:08:09.224Z,1017.14
2022-10-31T12:09:09.213Z,1017.16